createdAt,value
2018-03-01T00:09:05.559Z,22.60
2018-03-01T00:19:22.443Z,22.50
2018-03-01T00:29:31.964Z,22.50
2018-03-01T00:39:40.268Z,22.50
2018-03-01T00:49:52.969Z,22.30
2018-03-01T01:00:03.224Z,22.30
2018-03-01T01:10:13.475Z,22.30
2018-03-01T01:31:16.986Z,22.20
2018-03-01T01:42:09.949Z,22.10
2018-03-01T01:52:49.736Z,22.10
2018-03-01T02:03:25.103Z,22.10
2018-03-01T02:13:33.687Z,22.00
2018-03-01T02:23:44.408Z,22.10
2018-03-01T02:33:56.054Z,22.10
2018-03-01T02:44:06.857Z,22.10
2018-03-01T02:54:20.407Z,22.20
2018-03-01T03:04:30.504Z,22.10
2018-03-01T03:14:43.188Z,22.10
2018-03-01T03:25:15.207Z,22.10
2018-03-01T03:35:25.908Z,22.20
2018-03-01T03:45:36.557Z,22.20
2018-03-01T04:17:45.556Z,22.10
2018-03-01T04:27:59.192Z,22.10
2018-03-01T04:38:12.286Z,22.30
2018-03-01T04:48:23.199Z,22.20
2018-03-01T04:58:34.907Z,22.30
2018-03-01T05:08:49.052Z,22.20
2018-03-01T05:19:01.587Z,22.40
2018-03-01T05:29:10.372Z,22.30
2018-03-01T05:39:20.047Z,22.40
2018-03-01T05:49:31.176Z,22.40
2018-03-01T05:59:44.866Z,22.50
2018-03-01T06:09:54.094Z,22.70
2018-03-01T06:20:02.823Z,22.60
2018-03-01T06:30:11.997Z,22.80
2018-03-01T06:40:23.165Z,23.00
2018-03-01T06:50:34.178Z,22.90
2018-03-01T07:00:49.475Z,23.10
2018-03-01T07:10:59.788Z,23.10
2018-03-01T07:21:09.038Z,23.10
2018-03-01T07:31:18.276Z,23.20
2018-03-01T07:41:27.858Z,23.30
2018-03-01T07:51:36.951Z,23.20
2018-03-01T08:01:53.097Z,23.20
2018-03-01T08:12:01.634Z,23.10
2018-03-01T08:22:10.242Z,23.20
2018-03-01T08:32:24.948Z,23.00
2018-03-01T08:42:37.796Z,22.90
2018-03-01T08:52:46.852Z,22.80
2018-03-01T09:02:56.163Z,22.70
2018-03-01T09:13:07.975Z,22.70
2018-03-01T09:23:16.896Z,22.60
2018-03-01T09:33:29.496Z,22.60
2018-03-01T09:43:38.705Z,22.40
2018-03-01T09:53:47.820Z,22.50
2018-03-01T10:03:56.249Z,22.50
2018-03-01T10:14:06.748Z,22.60
2018-03-01T10:24:14.969Z,22.60
2018-03-01T10:34:24.284Z,22.60
2018-03-01T10:44:35.283Z,22.80
2018-03-01T10:54:44.701Z,22.80
2018-03-01T11:04:53.619Z,22.80
2018-03-01T11:15:02.581Z,22.90
2018-03-01T11:25:11.257Z,22.90
2018-03-01T11:35:21.313Z,22.90
2018-03-01T11:45:32.324Z,23.00
2018-03-01T11:55:42.122Z,23.00
2018-03-01T12:05:55.039Z,23.00
2018-03-01T12:16:07.289Z,23.00
2018-03-01T12:26:20.099Z,23.00
2018-03-01T12:36:33.119Z,23.00
2018-03-01T12:46:44.304Z,23.00
2018-03-01T12:56:55.046Z,22.80
2018-03-01T13:07:06.279Z,23.00
2018-03-01T13:17:14.853Z,23.00
2018-03-01T13:27:26.991Z,23.00
2018-03-01T13:37:36.320Z,23.00
2018-03-01T13:47:46.763Z,22.90
2018-03-01T14:12:31.402Z,22.90
2018-03-01T14:22:45.899Z,22.90
2018-03-01T14:32:59.407Z,22.80
2018-03-01T14:43:08.792Z,22.80
2018-03-01T14:53:20.944Z,22.80
2018-03-01T15:03:33.912Z,22.70
2018-03-01T15:13:44.667Z,22.50
2018-03-01T15:23:55.923Z,22.50
2018-03-01T15:34:12.026Z,22.40
2018-03-01T15:44:23.077Z,22.40
2018-03-01T15:54:32.361Z,22.40
2018-03-01T16:04:43.833Z,22.30
2018-03-01T16:14:53.145Z,22.30
2018-03-01T16:25:01.732Z,22.30
2018-03-01T16:35:12.817Z,22.30
2018-03-01T16:45:25.875Z,22.20
2018-03-01T16:55:34.910Z,22.10
2018-03-01T17:05:44.866Z,22.10
2018-03-01T17:15:53.800Z,22.10
2018-03-01T17:26:04.683Z,22.00
2018-03-01T17:36:13.114Z,22.00
2018-03-01T17:46:30.900Z,22.00
2018-03-01T17:56:40.754Z,22.00
2018-03-01T18:06:50.665Z,21.90
2018-03-01T18:16:59.175Z,21.90
2018-03-01T18:27:09.993Z,21.90
2018-03-01T18:37:19.999Z,21.90
2018-03-01T18:47:31.131Z,21.90
2018-03-01T18:58:12.164Z,21.90
2018-03-01T19:08:21.054Z,22.00
2018-03-01T19:18:30.355Z,22.00
2018-03-01T19:28:40.722Z,22.10
2018-03-01T19:38:49.242Z,22.00
2018-03-01T19:49:00.761Z,22.10
2018-03-01T19:59:10.738Z,22.20
2018-03-01T20:09:18.713Z,22.10
2018-03-01T20:19:29.255Z,22.20
2018-03-01T20:29:38.488Z,22.10
2018-03-01T20:39:47.913Z,22.20
2018-03-01T20:49:56.161Z,22.20
2018-03-01T21:00:05.408Z,22.30
2018-03-01T21:10:16.168Z,22.30
2018-03-01T21:20:26.214Z,22.40
2018-03-01T21:30:34.190Z,22.40
2018-03-01T21:40:44.426Z,22.40
2018-03-01T21:50:53.334Z,22.40
2018-03-01T22:01:02.963Z,22.40
2018-03-01T22:11:12.824Z,22.30
2018-03-01T22:21:27.005Z,22.50
2018-03-01T22:31:35.111Z,22.30
2018-03-01T22:41:43.790Z,22.50
2018-03-01T22:51:54.705Z,22.50
2018-03-01T23:02:02.868Z,22.50
2018-03-01T23:12:10.899Z,22.50
2018-03-01T23:22:22.330Z,22.50
2018-03-01T23:32:33.931Z,22.50
2018-03-01T23:42:43.044Z,22.60
2018-03-01T23:52:54.855Z,22.50
